createdAt,value
2023-03-22T00:00:43.909Z, 46.15
2023-03-22T00:01:43.935Z, 46.15
2023-03-22T00:02:43.989Z, 46.13
2023-03-22T00:03:44.008Z, 46.10
2023-03-22T00:04:43.941Z, 46.04
2023-03-22T00:05:43.961Z, 46.04
2023-03-22T00:06:44.080Z, 45.98
2023-03-22T00:07:43.998Z, 45.95
2023-03-22T00:08:44.091Z, 45.87
2023-03-22T00:09:44.059Z, 45.82
2023-03-22T00:10:44.071Z, 45.82
2023-03-22T00:11:44.119Z, 45.84
2023-03-22T00:12:44.080Z, 45.78
2023-03-22T00:13:44.162Z, 45.76
2023-03-22T00:14:44.129Z, 45.72
2023-03-22T00:15:44.167Z, 45.62
2023-03-22T00:16:44.133Z, 45.66
2023-03-22T00:17:44.126Z, 45.69
2023-03-22T00:18:44.133Z, 45.58
2023-03-22T00:19:44.154Z, 45.57
2023-03-22T00:20:44.225Z, 45.57
2023-03-22T00:21:44.204Z, 45.49
2023-03-22T00:22:44.224Z, 45.43
2023-03-22T00:23:44.201Z, 45.43
2023-03-22T00:24:44.275Z, 45.40
2023-03-22T00:25:44.227Z, 45.39
2023-03-22T00:26:44.234Z, 45.41
2023-03-22T00:27:44.239Z, 45.41
2023-03-22T00:28:44.266Z, 45.34
2023-03-22T00:29:44.334Z, 45.33
2023-03-22T00:30:44.321Z, 45.25
2023-03-22T00:31:44.413Z, 45.23
2023-03-22T00:32:44.333Z, 45.22
2023-03-22T00:33:44.324Z, 45.14
2023-03-22T00:34:44.346Z, 45.11
2023-03-22T00:35:44.390Z, 45.11
2023-03-22T00:36:44.415Z, 45.11
2023-03-22T00:37:44.387Z, 44.99
2023-03-22T00:38:44.990Z, 44.97
2023-03-22T00:39:44.475Z, 44.97
2023-03-22T00:40:44.433Z, 44.91
2023-03-22T00:41:44.444Z, 44.91
2023-03-22T00:42:44.441Z, 44.86
2023-03-22T00:43:44.489Z, 44.91
2023-03-22T00:44:44.460Z, 44.92
2023-03-22T00:45:44.591Z, 44.84
2023-03-22T00:46:44.528Z, 44.73
2023-03-22T00:47:44.645Z, 44.74
2023-03-22T00:48:44.531Z, 44.78
2023-03-22T00:49:44.539Z, 44.66
2023-03-22T00:50:44.538Z, 44.57
2023-03-22T00:51:44.543Z, 44.61
2023-03-22T00:52:44.552Z, 44.56
2023-03-22T00:53:44.557Z, 44.53
2023-03-22T00:54:44.634Z, 44.50
2023-03-22T00:55:44.619Z, 44.41
2023-03-22T00:56:44.663Z, 44.45
2023-03-22T00:57:44.622Z, 44.45
2023-03-22T00:58:44.729Z, 44.46
2023-03-22T00:59:44.686Z, 44.42
2023-03-22T01:00:44.733Z, 44.36
2023-03-22T01:01:44.690Z, 44.40
2023-03-22T01:02:44.727Z, 44.37
2023-03-22T01:03:44.805Z, 44.34
2023-03-22T01:04:44.713Z, 44.27
2023-03-22T01:05:44.822Z, 44.18
2023-03-22T01:06:44.830Z, 44.17
2023-03-22T01:07:44.819Z, 44.11
2023-03-22T01:08:44.823Z, 44.08
2023-03-22T01:09:44.795Z, 43.98
2023-03-22T01:10:44.820Z, 44.07
2023-03-22T01:11:44.796Z, 44.06
2023-03-22T01:12:44.792Z, 44.04
2023-03-22T01:13:44.793Z, 43.96
2023-03-22T01:14:44.848Z, 43.93
2023-03-22T01:15:44.882Z, 43.90
2023-03-22T01:16:44.878Z, 43.88
2023-03-22T01:17:44.843Z, 43.86
2023-03-22T01:18:44.884Z, 43.80
2023-03-22T01:19:44.935Z, 43.79
2023-03-22T01:20:44.915Z, 43.74
2023-03-22T01:21:44.982Z, 43.66
2023-03-22T01:22:44.935Z, 43.66
2023-03-22T01:23:44.977Z, 43.55
2023-03-22T01:24:44.958Z, 43.60
2023-03-22T01:25:45.020Z, 43.68
2023-03-22T01:26:44.986Z, 43.65
2023-03-22T01:27:44.993Z, 43.65
2023-03-22T01:28:45.066Z, 43.57
2023-03-22T01:29:45.048Z, 43.47
2023-03-22T01:30:45.115Z, 43.48
2023-03-22T01:31:45.038Z, 43.40
2023-03-22T01:32:45.039Z, 43.42
2023-03-22T01:33:45.056Z, 43.40
2023-03-22T01:34:45.045Z, 43.35
2023-03-22T01:35:45.209Z, 43.39
2023-03-22T01:36:45.093Z, 43.44
2023-03-22T01:37:45.172Z, 43.39
2023-03-22T01:38:45.114Z, 43.44
2023-03-22T01:39:45.160Z, 43.29
2023-03-22T01:40:45.145Z, 43.30
2023-03-22T01:41:45.145Z, 43.26
2023-03-22T01:42:45.148Z, 43.22
2023-03-22T01:43:45.174Z, 43.11
2023-03-22T01:44:45.184Z, 43.05
2023-03-22T01:45:45.251Z, 43.06
2023-03-22T01:46:45.295Z, 43.03
2023-03-22T01:47:45.309Z, 43.02
2023-03-22T01:48:45.361Z, 43.07
2023-03-22T01:49:45.284Z, 43.03
2023-03-22T01:50:45.297Z, 43.05
2023-03-22T01:51:45.279Z, 42.96
2023-03-22T01:52:45.293Z, 42.95
2023-03-22T01:53:45.329Z, 42.89
2023-03-22T01:54:45.350Z, 42.91
2023-03-22T01:55:45.331Z, 42.87
2023-03-22T01:56:45.342Z, 42.83
2023-03-22T01:57:45.350Z, 42.79
2023-03-22T01:58:45.356Z, 42.73
2023-03-22T01:59:45.420Z, 42.70
2023-03-22T02:00:45.420Z, 42.61
2023-03-22T02:01:45.599Z, 42.61
2023-03-22T02:02:45.481Z, 42.63
2023-03-22T02:08:46.680Z, 42.48
2023-03-22T02:09:45.517Z, 42.49
2023-03-22T02:10:45.526Z, 42.43
2023-03-22T02:11:45.519Z, 42.42
2023-03-22T02:12:45.596Z, 42.39
2023-03-22T02:13:45.564Z, 42.36
2023-03-22T02:14:45.610Z, 42.42
2023-03-22T02:15:45.637Z, 42.36
2023-03-22T02:16:45.581Z, 42.35
2023-03-22T02:17:45.658Z, 42.31
2023-03-22T02:18:45.631Z, 42.34
2023-03-22T02:19:45.667Z, 42.29
2023-03-22T02:20:45.616Z, 42.30
2023-03-22T02:21:45.688Z, 42.22
2023-03-22T02:22:45.674Z, 42.16
2023-03-22T02:23:45.736Z, 42.17
2023-03-22T02:24:45.713Z, 42.13
2023-03-22T02:25:45.745Z, 42.15
2023-03-22T02:26:45.740Z, 42.10
2023-03-22T02:27:45.743Z, 42.06
2023-03-22T02:28:45.738Z, 42.05
2023-03-22T02:29:45.733Z, 41.97
2023-03-22T02:30:45.742Z, 41.97
2023-03-22T02:31:45.751Z, 41.96
2023-03-22T02:32:45.821Z, 41.93
2023-03-22T02:33:45.814Z, 41.95
2023-03-22T02:34:45.839Z, 41.91
2023-03-22T02:35:45.869Z, 41.80
2023-03-22T02:36:45.882Z, 41.78
2023-03-22T02:37:45.855Z, 41.75
2023-03-22T02:38:45.936Z, 41.76
2023-03-22T02:39:45.862Z, 41.77
2023-03-22T02:40:45.871Z, 41.72
2023-03-22T02:41:45.885Z, 41.73
2023-03-22T02:42:45.892Z, 41.68
2023-03-22T02:43:45.936Z, 41.66
2023-03-22T02:44:45.917Z, 41.67
2023-03-22T02:45:45.995Z, 41.67
2023-03-22T02:46:46.037Z, 41.58
2023-03-22T02:47:46.005Z, 41.54
2023-03-22T02:48:45.984Z, 41.53
2023-03-22T02:49:46.012Z, 41.52
2023-03-22T02:50:45.987Z, 41.47
2023-03-22T02:51:45.996Z, 41.49
2023-03-22T02:52:46.019Z, 41.45
2023-03-22T02:53:46.039Z, 41.35
2023-03-22T02:54:46.039Z, 41.36
2023-03-22T02:55:46.053Z, 41.33
2023-03-22T02:56:46.054Z, 41.38
2023-03-22T02:57:46.130Z, 41.37
2023-03-22T02:58:46.121Z, 41.32
2023-03-22T02:59:46.112Z, 41.32
2023-03-22T03:00:46.198Z, 41.25
2023-03-22T03:01:46.202Z, 41.27
2023-03-22T03:02:46.133Z, 41.24
2023-03-22T03:03:46.151Z, 41.25
2023-03-22T03:04:46.408Z, 41.26
2023-03-22T03:05:46.203Z, 41.24
2023-03-22T03:06:46.264Z, 41.24
2023-03-22T03:07:46.216Z, 41.16
2023-03-22T03:08:46.222Z, 41.26
2023-03-22T03:09:46.241Z, 41.20
2023-03-22T03:10:46.263Z, 41.17
2023-03-22T03:11:46.272Z, 41.12
2023-03-22T03:12:46.276Z, 41.08
2023-03-22T03:13:46.367Z, 41.09
2023-03-22T03:14:46.338Z, 41.06
2023-03-22T03:15:46.360Z, 41.07
2023-03-22T03:16:46.361Z, 41.09
2023-03-22T03:17:46.407Z, 41.01
2023-03-22T03:18:46.393Z, 41.00
2023-03-22T03:19:46.428Z, 40.95
2023-03-22T03:20:46.412Z, 40.93
2023-03-22T03:21:46.404Z, 40.86
2023-03-22T03:22:46.403Z, 40.86
2023-03-22T03:23:46.449Z, 40.84
2023-03-22T03:24:46.486Z, 40.76
2023-03-22T03:25:46.469Z, 40.74
2023-03-22T03:26:46.456Z, 40.76
2023-03-22T03:27:46.454Z, 40.79
2023-03-22T03:28:46.499Z, 40.81
2023-03-22T03:29:46.492Z, 40.80
2023-03-22T03:30:46.492Z, 40.76
2023-03-22T03:31:46.565Z, 40.71
2023-03-22T03:32:46.517Z, 40.72
2023-03-22T03:33:46.617Z, 40.75
2023-03-22T03:34:46.575Z, 40.71
2023-03-22T03:35:46.701Z, 40.62
2023-03-22T03:36:46.601Z, 40.61
2023-03-22T03:37:46.616Z, 40.62
2023-03-22T03:38:46.694Z, 40.64
2023-03-22T03:39:46.670Z, 40.62
2023-03-22T03:40:46.732Z, 40.66
2023-03-22T03:41:46.722Z, 40.59
2023-03-22T03:42:46.758Z, 40.56
2023-03-22T03:43:46.731Z, 40.55
2023-03-22T03:44:46.793Z, 40.51
2023-03-22T03:45:46.827Z, 40.43
2023-03-22T03:46:46.806Z, 40.42
2023-03-22T03:47:47.041Z, 40.37
2023-03-22T03:48:46.778Z, 40.33
2023-03-22T03:49:46.764Z, 40.32
2023-03-22T03:50:46.810Z, 40.34
2023-03-22T03:51:46.779Z, 40.27
2023-03-22T03:52:46.780Z, 40.31
2023-03-22T03:53:46.885Z, 40.29
2023-03-22T03:54:46.837Z, 40.27
2023-03-22T03:55:46.856Z, 40.26
2023-03-22T03:56:46.844Z, 40.18
2023-03-22T03:57:46.869Z, 40.18
2023-03-22T03:58:46.900Z, 40.10
2023-03-22T03:59:46.882Z, 40.08
2023-03-22T04:00:46.903Z, 40.12
2023-03-22T04:01:46.906Z, 40.13
2023-03-22T04:02:46.998Z, 40.09
2023-03-22T04:03:46.980Z, 40.07
2023-03-22T04:04:47.072Z, 40.05
2023-03-22T04:05:47.007Z, 40.09
2023-03-22T04:06:47.013Z, 40.07
2023-03-22T04:07:47.001Z, 40.09
2023-03-22T04:08:47.023Z, 40.04
2023-03-22T04:09:47.023Z, 40.09
2023-03-22T04:10:47.034Z, 39.95
2023-03-22T04:11:47.106Z, 39.93
2023-03-22T04:12:47.074Z, 39.91
2023-03-22T04:13:47.140Z, 39.91
2023-03-22T04:14:47.106Z, 39.88
2023-03-22T04:15:47.128Z, 39.83
2023-03-22T04:16:47.154Z, 39.80
2023-03-22T04:17:47.121Z, 39.77
2023-03-22T04:18:47.134Z, 39.79
2023-03-22T04:19:47.172Z, 39.90
2023-03-22T04:20:47.154Z, 39.83
2023-03-22T04:21:47.161Z, 39.74
2023-03-22T04:22:47.206Z, 39.74
2023-03-22T04:23:47.213Z, 39.75
2023-03-22T04:24:47.270Z, 39.75
2023-03-22T04:25:47.253Z, 39.71
2023-03-22T04:26:47.318Z, 39.65
2023-03-22T04:27:47.286Z, 39.66
2023-03-22T04:28:47.341Z, 39.60
2023-03-22T04:29:47.306Z, 39.61
2023-03-22T04:30:47.356Z, 39.67
2023-03-22T04:31:47.327Z, 40.45
2023-03-22T04:32:47.335Z, 41.63
2023-03-22T04:33:47.409Z, 41.86
2023-03-22T04:34:47.375Z, 41.90
2023-03-22T04:35:47.444Z, 41.85
2023-03-22T04:36:47.384Z, 41.76
2023-03-22T04:37:47.388Z, 41.68
2023-03-22T04:38:47.398Z, 41.60
2023-03-22T04:39:47.407Z, 41.44
2023-03-22T04:40:47.399Z, 41.00
2023-03-22T04:41:47.415Z, 40.36
2023-03-22T04:42:47.435Z, 39.71
2023-03-22T04:43:47.453Z, 39.18
2023-03-22T04:44:47.526Z, 38.82
2023-03-22T04:45:47.513Z, 38.53
2023-03-22T04:46:47.551Z, 38.30
2023-03-22T04:47:47.533Z, 38.12
2023-03-22T04:48:47.533Z, 37.95
2023-03-22T04:49:47.525Z, 37.76
2023-03-22T04:50:47.633Z, 37.60
2023-03-22T04:51:47.597Z, 37.42
2023-03-22T04:52:47.660Z, 37.29
2023-03-22T04:53:47.622Z, 37.14
2023-03-22T04:54:47.618Z, 37.01
2023-03-22T04:55:47.628Z, 36.85
2023-03-22T04:56:47.639Z, 36.74
2023-03-22T04:57:47.656Z, 36.63
2023-03-22T04:58:47.656Z, 36.48
2023-03-22T04:59:47.724Z, 39.03
2023-03-22T05:00:47.873Z, 46.44
2023-03-22T05:01:47.793Z, 49.83
2023-03-22T05:02:47.747Z, 48.42
2023-03-22T05:03:47.770Z, 47.20
2023-03-22T05:04:47.747Z, 46.44
2023-03-22T05:05:47.753Z, 45.61
2023-03-22T05:06:47.743Z, 44.83
2023-03-22T05:07:47.761Z, 44.10
2023-03-22T05:08:47.841Z, 43.46
2023-03-22T05:09:47.803Z, 42.89
2023-03-22T05:10:47.818Z, 42.39
2023-03-22T05:11:47.801Z, 41.94
2023-03-22T05:12:47.830Z, 41.58
2023-03-22T05:13:47.835Z, 41.24
2023-03-22T05:14:47.877Z, 40.92
2023-03-22T05:15:48.015Z, 40.59
2023-03-22T05:16:47.899Z, 40.26
2023-03-22T05:17:47.939Z, 39.92
2023-03-22T05:18:47.922Z, 39.59
2023-03-22T05:19:47.958Z, 39.20
2023-03-22T05:20:47.925Z, 38.82
2023-03-22T05:21:47.964Z, 38.44
2023-03-22T05:22:47.967Z, 38.01
2023-03-22T05:23:50.344Z, 37.56
2023-03-22T05:24:47.976Z, 37.14
2023-03-22T05:25:47.982Z, 36.70
2023-03-22T05:26:48.060Z, 36.31
2023-03-22T05:27:48.045Z, 40.78
2023-03-22T05:28:48.072Z, 48.60
2023-03-22T05:29:48.046Z, 52.25
2023-03-22T05:30:48.110Z, 51.24
2023-03-22T05:31:48.099Z, 49.82
2023-03-22T05:32:48.072Z, 48.67
2023-03-22T05:33:48.081Z, 47.90
2023-03-22T05:34:48.077Z, 47.41
2023-03-22T05:35:48.180Z, 46.91
2023-03-22T05:36:48.084Z, 46.36
2023-03-22T05:37:48.157Z, 46.99
2023-03-22T05:38:48.144Z, 50.15
2023-03-22T05:39:48.191Z, 52.04
2023-03-22T05:40:48.187Z, 54.95
2023-03-22T05:41:48.184Z, 58.14
2023-03-22T05:42:48.189Z, 63.33
2023-03-22T05:43:48.229Z, 62.54
2023-03-22T05:44:48.222Z, 52.43
2023-03-22T05:45:48.231Z, 53.30
2023-03-22T05:46:48.319Z, 54.18
2023-03-22T05:47:48.297Z, 56.28
2023-03-22T05:48:48.278Z, 59.21
2023-03-22T05:49:48.302Z, 67.88
2023-03-22T05:50:48.362Z, 58.86
2023-03-22T05:51:48.350Z, 53.62
2023-03-22T05:52:48.346Z, 54.78
2023-03-22T05:53:48.369Z, 55.85
2023-03-22T05:54:48.354Z, 58.25
2023-03-22T05:55:48.367Z, 59.93
2023-03-22T05:56:48.376Z, 60.89
2023-03-22T05:57:48.383Z, 63.76
2023-03-22T05:58:48.422Z, 64.68
2023-03-22T05:59:48.423Z, 64.49
2023-03-22T06:00:48.409Z, 64.10
2023-03-22T06:01:48.618Z, 63.76
2023-03-22T06:02:48.523Z, 63.40
2023-03-22T06:03:48.625Z, 63.38
2023-03-22T06:04:48.453Z, 62.72
2023-03-22T06:05:48.468Z, 61.85
2023-03-22T06:06:48.479Z, 61.39
2023-03-22T06:07:48.472Z, 60.94
2023-03-22T06:08:48.496Z, 60.78
2023-03-22T06:09:48.489Z, 60.19
2023-03-22T06:10:48.590Z, 59.43
2023-03-22T06:11:48.562Z, 58.93
2023-03-22T06:12:48.631Z, 58.49
2023-03-22T06:13:48.609Z, 58.30
2023-03-22T06:14:48.593Z, 57.94
2023-03-22T06:15:48.598Z, 57.22
2023-03-22T06:16:48.662Z, 56.83
2023-03-22T06:17:48.628Z, 56.52
2023-03-22T06:18:48.674Z, 56.02
2023-03-22T06:19:48.651Z, 55.61
2023-03-22T06:20:48.653Z, 55.21
2023-03-22T06:21:48.659Z, 54.82
2023-03-22T06:22:48.671Z, 54.49
2023-03-22T06:23:48.703Z, 54.13
2023-03-22T06:24:48.689Z, 53.83
2023-03-22T06:25:48.712Z, 53.57
2023-03-22T06:26:48.749Z, 53.36
2023-03-22T06:27:48.738Z, 53.14
2023-03-22T06:28:48.747Z, 52.93
2023-03-22T06:29:48.818Z, 52.70
2023-03-22T06:30:48.887Z, 52.47
2023-03-22T06:31:48.829Z, 52.32
2023-03-22T06:32:48.800Z, 52.16
2023-03-22T06:33:48.891Z, 51.99
2023-03-22T06:34:48.822Z, 51.81
2023-03-22T06:35:48.899Z, 51.61
2023-03-22T06:36:48.840Z, 51.46
2023-03-22T06:37:48.850Z, 51.29
2023-03-22T06:38:48.861Z, 51.17
2023-03-22T06:39:48.858Z, 51.03
2023-03-22T06:40:48.891Z, 50.86
2023-03-22T06:41:48.899Z, 50.76
2023-03-22T06:42:48.956Z, 50.62
2023-03-22T06:43:48.929Z, 50.46
2023-03-22T06:44:48.977Z, 50.28
2023-03-22T06:45:48.965Z, 50.18
2023-03-22T06:46:49.027Z, 50.00
2023-03-22T06:47:49.016Z, 49.87
2023-03-22T06:48:49.013Z, 49.77
2023-03-22T06:49:48.997Z, 49.64
2023-03-22T06:50:49.012Z, 49.46
2023-03-22T06:51:49.007Z, 49.39
2023-03-22T06:52:49.008Z, 49.32
2023-03-22T06:53:49.106Z, 49.21
2023-03-22T06:54:49.040Z, 49.07
2023-03-22T06:55:49.121Z, 48.97
2023-03-22T06:56:49.139Z, 48.77
2023-03-22T06:57:49.161Z, 48.69
2023-03-22T06:58:49.146Z, 48.57
2023-03-22T06:59:49.174Z, 48.49
2023-03-22T07:00:49.161Z, 48.39
2023-03-22T07:01:49.175Z, 48.35
2023-03-22T07:02:51.478Z, 48.30
2023-03-22T07:03:49.173Z, 48.18
2023-03-22T07:04:49.355Z, 48.04
2023-03-22T07:05:49.225Z, 47.95
2023-03-22T07:06:49.267Z, 47.92
2023-03-22T07:07:49.263Z, 47.85
2023-03-22T07:08:50.900Z, 47.77
2023-03-22T07:09:49.242Z, 47.69
2023-03-22T07:10:49.251Z, 47.57
2023-03-22T07:11:49.277Z, 47.52
2023-03-22T07:12:49.272Z, 47.44
2023-03-22T07:13:49.336Z, 47.39
2023-03-22T07:14:49.309Z, 47.30
2023-03-22T07:15:49.462Z, 47.24
2023-03-22T07:16:49.367Z, 47.11
2023-03-22T07:17:49.348Z, 47.04
2023-03-22T07:18:49.373Z, 46.97
2023-03-22T07:19:49.367Z, 46.91
2023-03-22T07:20:49.363Z, 46.79
2023-03-22T07:21:49.382Z, 46.67
2023-03-22T07:22:49.404Z, 46.62
2023-03-22T07:23:49.412Z, 46.58
2023-03-22T07:24:56.980Z, 46.57
2023-03-22T07:25:49.443Z, 46.49
2023-03-22T07:26:49.441Z, 46.43
2023-03-22T07:27:49.457Z, 46.39
2023-03-22T07:28:49.481Z, 46.34
2023-03-22T07:29:49.557Z, 46.28
2023-03-22T07:30:49.499Z, 46.19
2023-03-22T07:31:49.541Z, 46.11
2023-03-22T07:32:49.541Z, 46.05
2023-03-22T07:33:49.542Z, 45.93
2023-03-22T07:34:49.559Z, 45.93
2023-03-22T07:35:49.640Z, 45.91
2023-03-22T07:36:49.574Z, 45.80
2023-03-22T07:37:49.587Z, 45.82
2023-03-22T07:38:49.617Z, 45.77
2023-03-22T07:39:49.626Z, 45.68
2023-03-22T07:40:49.634Z, 45.62
2023-03-22T07:41:49.721Z, 45.58
2023-03-22T07:42:49.811Z, 45.49
2023-03-22T07:43:56.644Z, 45.49
2023-03-22T07:44:49.858Z, 45.38
2023-03-22T07:45:49.765Z, 45.33
2023-03-22T07:46:49.738Z, 45.32
2023-03-22T07:47:50.023Z, 45.23
2023-03-22T07:48:49.762Z, 45.14
2023-03-22T07:49:49.739Z, 45.07
2023-03-22T07:50:49.756Z, 45.00
2023-03-22T07:51:49.756Z, 45.00
2023-03-22T07:52:49.771Z, 44.90
2023-03-22T07:53:49.822Z, 44.82
2023-03-22T07:54:49.794Z, 44.80
2023-03-22T07:55:49.840Z, 44.73
2023-03-22T07:56:49.854Z, 44.68
2023-03-22T07:57:49.902Z, 44.67
2023-03-22T07:58:49.982Z, 44.60
2023-03-22T07:59:49.904Z, 44.53
2023-03-22T08:00:49.909Z, 44.50
2023-03-22T08:01:49.937Z, 44.43
2023-03-22T08:02:49.950Z, 44.38
2023-03-22T08:03:50.260Z, 44.36
2023-03-22T08:04:51.915Z, 44.36
2023-03-22T08:05:49.963Z, 44.26
2023-03-22T08:06:50.112Z, 44.25
2023-03-22T08:07:49.961Z, 44.15
2023-03-22T08:08:49.978Z, 44.14
2023-03-22T08:09:49.978Z, 44.19
2023-03-22T08:10:50.060Z, 44.10
2023-03-22T08:11:50.046Z, 44.04
2023-03-22T08:12:50.034Z, 44.01
2023-03-22T08:13:50.069Z, 43.99
2023-03-22T08:14:50.036Z, 43.97
2023-03-22T08:15:50.111Z, 43.96
2023-03-22T08:16:50.062Z, 43.88
2023-03-22T08:17:50.132Z, 43.80
2023-03-22T08:18:50.117Z, 43.72
2023-03-22T08:19:50.182Z, 43.72
2023-03-22T08:20:50.155Z, 43.68
2023-03-22T08:21:50.167Z, 43.65
2023-03-22T08:22:50.163Z, 43.62
2023-03-22T08:23:50.182Z, 43.54
2023-03-22T08:24:50.157Z, 43.50
2023-03-22T08:25:50.249Z, 43.52
2023-03-22T08:26:50.264Z, 43.48
2023-03-22T08:27:50.233Z, 43.48
2023-03-22T08:28:50.260Z, 43.44
2023-03-22T08:29:50.234Z, 43.41
2023-03-22T08:30:50.315Z, 43.30
2023-03-22T08:31:50.360Z, 43.23
2023-03-22T08:32:50.357Z, 43.24
2023-03-22T08:33:50.332Z, 43.20
2023-03-22T08:34:50.346Z, 43.16
2023-03-22T08:35:50.346Z, 43.15
2023-03-22T08:36:50.340Z, 43.07
2023-03-22T08:37:51.444Z, 43.09
2023-03-22T08:38:50.407Z, 43.08
2023-03-22T08:39:50.372Z, 43.02
2023-03-22T08:40:50.381Z, 42.99
2023-03-22T08:41:50.365Z, 42.97
2023-03-22T08:42:50.372Z, 42.97
2023-03-22T08:43:50.395Z, 42.93
2023-03-22T08:44:50.384Z, 42.91
2023-03-22T08:45:50.518Z, 42.89
2023-03-22T08:46:50.436Z, 42.87
2023-03-22T08:47:50.580Z, 42.82
2023-03-22T08:48:50.509Z, 42.72
2023-03-22T08:49:50.487Z, 42.75
2023-03-22T08:50:50.490Z, 42.69
2023-03-22T08:51:50.485Z, 42.61
2023-03-22T08:52:50.572Z, 42.55
2023-03-22T08:53:50.551Z, 42.61
2023-03-22T08:54:50.602Z, 42.62
2023-03-22T08:55:50.603Z, 42.57
2023-03-22T08:56:50.581Z, 42.51
2023-03-22T08:57:50.625Z, 42.43
2023-03-22T08:58:50.609Z, 42.38
2023-03-22T08:59:50.657Z, 42.36
2023-03-22T09:00:50.684Z, 42.31
2023-03-22T09:01:50.818Z, 42.28
2023-03-22T09:02:50.654Z, 42.24
2023-03-22T09:03:50.711Z, 42.32
2023-03-22T09:04:50.806Z, 42.33
2023-03-22T09:05:50.673Z, 42.37
2023-03-22T09:06:50.695Z, 42.37
2023-03-22T09:07:50.716Z, 42.25
2023-03-22T09:08:50.759Z, 42.25
2023-03-22T09:09:50.723Z, 42.16
2023-03-22T09:10:50.762Z, 42.16
2023-03-22T09:11:50.732Z, 42.14
2023-03-22T09:12:50.735Z, 42.12
2023-03-22T09:13:50.778Z, 42.11
2023-03-22T09:14:50.788Z, 42.08
2023-03-22T09:15:50.783Z, 42.01
2023-03-22T09:16:50.796Z, 41.94
2023-03-22T09:17:50.875Z, 41.91
2023-03-22T09:18:50.853Z, 41.89
2023-03-22T09:19:57.615Z, 41.87
2023-03-22T09:20:50.883Z, 41.85
2023-03-22T09:21:50.883Z, 41.78
2023-03-22T09:22:50.871Z, 41.76
2023-03-22T09:23:50.925Z, 41.74
2023-03-22T09:24:50.937Z, 41.73
2023-03-22T09:25:50.920Z, 41.67
2023-03-22T09:26:50.916Z, 41.65
2023-03-22T09:27:50.920Z, 41.62
2023-03-22T09:28:51.033Z, 41.58
2023-03-22T09:29:51.006Z, 41.56
2023-03-22T09:30:51.021Z, 41.50
2023-03-22T09:31:51.028Z, 41.51
2023-03-22T09:32:50.991Z, 41.46
2023-03-22T09:33:51.014Z, 41.42
2023-03-22T09:34:50.992Z, 41.37
2023-03-22T09:35:51.039Z, 41.38
2023-03-22T09:36:51.054Z, 41.36
2023-03-22T09:37:51.039Z, 41.33
2023-03-22T09:38:51.062Z, 41.35
2023-03-22T09:39:51.085Z, 41.33
2023-03-22T09:40:51.075Z, 41.30
2023-03-22T09:41:51.100Z, 41.33
2023-03-22T09:42:51.114Z, 41.23
2023-03-22T09:43:51.129Z, 41.19
2023-03-22T09:44:51.224Z, 41.11
2023-03-22T09:45:51.161Z, 41.11
2023-03-22T09:46:51.206Z, 41.09
2023-03-22T09:47:51.208Z, 41.09
2023-03-22T09:48:51.215Z, 41.08
2023-03-22T09:49:54.051Z, 41.10
2023-03-22T09:50:51.206Z, 41.05
2023-03-22T09:51:51.431Z, 41.05
2023-03-22T09:52:51.233Z, 41.02
2023-03-22T09:53:51.315Z, 41.00
2023-03-22T09:54:53.009Z, 40.97
2023-03-22T09:55:51.339Z, 40.90
2023-03-22T09:56:51.313Z, 40.89
2023-03-22T09:57:51.317Z, 40.86
2023-03-22T09:58:51.378Z, 40.86
2023-03-22T09:59:51.304Z, 40.84
2023-03-22T10:00:51.491Z, 40.82
2023-03-22T10:01:51.651Z, 40.72
2023-03-22T10:02:51.484Z, 40.75
2023-03-22T10:03:51.427Z, 40.72
2023-03-22T10:04:51.369Z, 40.66
2023-03-22T10:05:51.384Z, 40.62
2023-03-22T10:06:51.402Z, 40.64
2023-03-22T10:07:51.459Z, 40.57
2023-03-22T10:08:51.441Z, 40.57
2023-03-22T10:09:51.494Z, 40.50
2023-03-22T10:10:51.479Z, 40.48
2023-03-22T10:11:51.474Z, 40.49
2023-03-22T10:12:51.487Z, 40.48
2023-03-22T10:13:51.507Z, 40.49
2023-03-22T10:14:51.494Z, 40.46
2023-03-22T10:15:51.571Z, 40.46
2023-03-22T10:16:51.624Z, 40.45
2023-03-22T10:17:51.554Z, 40.40
2023-03-22T10:18:51.590Z, 40.38
2023-03-22T10:19:51.564Z, 40.31
2023-03-22T10:20:51.643Z, 40.30
2023-03-22T10:21:51.609Z, 40.27
2023-03-22T10:22:53.330Z, 40.24
2023-03-22T10:23:51.660Z, 40.15
2023-03-22T10:24:51.634Z, 40.22
2023-03-22T10:25:51.633Z, 40.16
2023-03-22T10:26:51.633Z, 40.15
2023-03-22T10:27:51.644Z, 40.12
2023-03-22T10:28:51.660Z, 40.07
2023-03-22T10:29:51.739Z, 40.00
2023-03-22T10:30:51.718Z, 40.02
2023-03-22T10:31:51.857Z, 39.93
2023-03-22T10:32:57.840Z, 39.93
2023-03-22T10:33:51.759Z, 39.93
2023-03-22T10:34:51.750Z, 39.91
2023-03-22T10:35:52.005Z, 39.88
2023-03-22T10:36:51.808Z, 39.85
2023-03-22T10:37:51.811Z, 39.82
2023-03-22T10:38:51.810Z, 39.84
2023-03-22T10:39:51.842Z, 39.78
2023-03-22T10:40:51.834Z, 39.80
2023-03-22T10:41:51.834Z, 39.73
2023-03-22T10:42:51.842Z, 39.69
2023-03-22T10:43:51.865Z, 39.65
2023-03-22T10:44:51.943Z, 39.66
2023-03-22T10:45:51.895Z, 39.60
2023-03-22T10:46:52.030Z, 39.59
2023-03-22T10:47:52.009Z, 39.60
2023-03-22T10:48:51.946Z, 39.60
2023-03-22T10:49:51.935Z, 39.55
2023-03-22T10:50:51.952Z, 39.59
2023-03-22T10:51:51.945Z, 39.50
2023-03-22T10:52:51.956Z, 39.49
2023-03-22T10:53:52.030Z, 39.49
2023-03-22T10:54:51.985Z, 39.45
2023-03-22T10:55:52.081Z, 39.40
2023-03-22T10:56:52.049Z, 39.42
2023-03-22T10:57:52.107Z, 39.35
2023-03-22T10:58:52.083Z, 39.39
2023-03-22T10:59:52.114Z, 39.41
2023-03-22T11:00:52.240Z, 39.41
2023-03-22T11:01:52.395Z, 40.24
2023-03-22T11:02:52.200Z, 41.17
2023-03-22T11:03:52.134Z, 41.38
2023-03-22T11:04:52.114Z, 41.39
2023-03-22T11:05:52.129Z, 41.38
2023-03-22T11:06:54.719Z, 41.32
2023-03-22T11:07:52.168Z, 41.29
2023-03-22T11:08:52.417Z, 41.25
2023-03-22T11:09:52.380Z, 41.15
2023-03-22T11:10:52.465Z, 40.82
2023-03-22T11:11:52.233Z, 40.28
2023-03-22T11:12:52.262Z, 39.74
2023-03-22T11:13:52.401Z, 39.19
2023-03-22T11:14:52.381Z, 38.72
2023-03-22T11:15:52.385Z, 38.43
2023-03-22T11:16:52.451Z, 38.12
2023-03-22T11:17:52.400Z, 37.91
2023-03-22T11:18:52.301Z, 37.71
2023-03-22T11:19:52.502Z, 37.55
2023-03-22T11:20:52.533Z, 37.38
2023-03-22T11:21:52.382Z, 37.25
2023-03-22T11:22:52.378Z, 37.13
2023-03-22T11:23:52.378Z, 37.01
2023-03-22T11:24:52.384Z, 36.88
2023-03-22T11:25:52.414Z, 36.79
2023-03-22T11:26:52.401Z, 36.70
2023-03-22T11:27:52.407Z, 36.63
2023-03-22T11:28:52.427Z, 36.53
2023-03-22T11:29:52.437Z, 36.46
2023-03-22T11:30:52.479Z, 36.30
2023-03-22T11:31:55.529Z, 36.16
2023-03-22T11:32:52.607Z, 36.10
2023-03-22T11:33:52.591Z, 35.95
2023-03-22T11:34:52.586Z, 35.75
2023-03-22T11:35:52.617Z, 35.57
2023-03-22T11:36:52.558Z, 35.41
2023-03-22T11:37:52.606Z, 35.28
2023-03-22T11:38:52.577Z, 35.15
2023-03-22T11:39:52.586Z, 35.03
2023-03-22T11:40:52.580Z, 34.92
2023-03-22T11:41:52.649Z, 34.84
2023-03-22T11:42:52.607Z, 34.80
2023-03-22T11:43:53.555Z, 34.74
2023-03-22T11:44:52.620Z, 34.70
2023-03-22T11:45:52.635Z, 34.67
2023-03-22T11:46:52.633Z, 34.62
2023-03-22T11:47:52.773Z, 34.61
2023-03-22T11:48:52.754Z, 34.55
2023-03-22T11:49:52.679Z, 34.51
2023-03-22T11:50:52.730Z, 34.49
2023-03-22T11:51:52.713Z, 34.45
2023-03-22T11:52:52.794Z, 34.40
2023-03-22T11:53:52.775Z, 34.36
2023-03-22T11:54:52.767Z, 34.36
2023-03-22T11:55:52.831Z, 34.30
2023-03-22T11:56:52.811Z, 34.24
2023-03-22T11:57:52.804Z, 34.26
2023-03-22T11:58:52.878Z, 34.23
2023-03-22T11:59:52.850Z, 34.22
2023-03-22T12:00:52.895Z, 34.17
2023-03-22T12:01:52.864Z, 34.16
2023-03-22T12:02:53.047Z, 34.13
2023-03-22T12:03:53.031Z, 34.10
2023-03-22T12:04:53.010Z, 34.09
2023-03-22T12:05:52.920Z, 34.09
2023-03-22T12:06:52.905Z, 34.06
2023-03-22T12:07:52.975Z, 34.04
2023-03-22T12:08:52.971Z, 33.99
2023-03-22T12:09:53.006Z, 33.95
2023-03-22T12:10:52.975Z, 33.92
2023-03-22T12:11:53.028Z, 33.93
2023-03-22T12:12:52.993Z, 33.92
2023-03-22T12:13:53.024Z, 33.94
2023-03-22T12:14:53.005Z, 33.90
2023-03-22T12:15:53.053Z, 33.91
2023-03-22T12:16:53.024Z, 33.91
2023-03-22T12:17:53.131Z, 33.94
2023-03-22T12:18:53.054Z, 33.92
2023-03-22T12:19:53.063Z, 33.87
2023-03-22T12:20:53.148Z, 33.84
2023-03-22T12:21:53.144Z, 33.80
2023-03-22T12:22:53.190Z, 33.76
2023-03-22T12:23:53.166Z, 33.73
2023-03-22T12:24:53.167Z, 33.69
2023-03-22T12:25:53.159Z, 33.70
2023-03-22T12:26:53.175Z, 33.72
2023-03-22T12:27:53.185Z, 33.72
2023-03-22T12:28:53.206Z, 33.68
2023-03-22T12:29:53.245Z, 33.63
2023-03-22T12:30:53.345Z, 33.64
2023-03-22T12:31:53.466Z, 33.64
2023-03-22T12:32:53.290Z, 33.62
2023-03-22T12:33:53.266Z, 33.62